Time;durP1;ratioP1;P1;durP2;ratioP2;P2;SDS_P1;SDS_P2;PMS_P1;PMS_P2;Temp;Humidity;BMP_temperature;BMP_pressure;BME280_temperature;BME280_humidity;BME280_pressure;Samples;Min_cycle;Max_cycle;Signal;HPM_P1;HPM_P2
2022/04/28 00:00:55;;;;;;;2.20;1.10;;;5.10;99.90;;;;;;5062971;28;20257;-71
2022/04/28 00:03:21;;;;;;;2.90;1.33;;;5.00;99.90;;;;;;5062706;28;20482;-71
2022/04/28 00:05:46;;;;;;;4.25;1.70;;;5.00;99.90;;;;;;5061448;28;20374;-71
2022/04/28 00:08:13;;;;;;;6.28;1.75;;;4.90;99.90;;;;;;5062404;28;20057;-71
2022/04/28 00:10:39;;;;;;;4.72;1.65;;;4.90;99.90;;;;;;5063013;28;20040;-70
2022/04/28 00:13:07;;;;;;;3.03;1.23;;;4.90;99.90;;;;;;5060678;28;20490;-70
2022/04/28 00:15:33;;;;;;;2.83;1.42;;;4.90;99.90;;;;;;5045946;28;20163;-71
2022/04/28 00:17:59;;;;;;;2.65;1.33;;;4.90;99.90;;;;;;5060977;28;20111;-71
2022/04/28 00:20:25;;;;;;;4.75;1.70;;;4.90;99.90;;;;;;5041292;28;20044;-71
2022/04/28 00:22:50;;;;;;;2.25;1.40;;;4.90;99.90;;;;;;5062165;28;20083;-71
2022/04/28 00:25:16;;;;;;;2.92;1.45;;;4.80;99.90;;;;;;5059021;28;20040;-71
2022/04/28 00:27:42;;;;;;;4.35;1.38;;;4.80;99.90;;;;;;5043790;28;20040;-71
2022/04/28 00:30:08;;;;;;;3.47;1.58;;;4.80;99.90;;;;;;5062097;28;20044;-71
2022/04/28 00:32:34;;;;;;;2.20;1.30;;;4.80;99.90;;;;;;5062370;28;20052;-71
2022/04/28 00:35:00;;;;;;;4.50;1.77;;;4.70;99.90;;;;;;5061534;28;20085;-70
2022/04/28 00:37:26;;;;;;;2.95;1.45;;;4.70;99.90;;;;;;5058843;28;20052;-71
2022/04/28 00:39:52;;;;;;;3.30;1.50;;;4.80;99.90;;;;;;5045422;28;20040;-70
2022/04/28 00:42:19;;;;;;;5.00;2.00;;;4.80;99.90;;;;;;5061917;28;20529;-71
2022/04/28 00:44:46;;;;;;;2.45;1.40;;;4.70;99.90;;;;;;5043126;28;20536;-71
2022/04/28 00:47:12;;;;;;;2.53;1.77;;;4.80;99.90;;;;;;5058787;28;20041;-71
2022/04/28 00:52:23;;;;;;;1.67;0.98;;;4.70;99.90;;;;;;5062071;28;20044;-71
2022/04/28 00:54:51;;;;;;;4.50;2.15;;;4.70;99.90;;;;;;5061864;28;20037;-70
2022/04/28 00:57:17;;;;;;;5.68;1.67;;;4.70;99.90;;;;;;5026458;28;20036;-70
2022/04/28 00:59:46;;;;;;;3.55;2.05;;;4.70;99.90;;;;;;5060350;28;20047;-71
2022/04/28 01:02:12;;;;;;;3.85;1.70;;;4.70;99.90;;;;;;5060670;28;20119;-71
2022/04/28 01:04:38;;;;;;;3.22;1.33;;;4.70;99.90;;;;;;5062008;28;20622;-71
2022/04/28 01:07:05;;;;;;;1.67;0.98;;;4.70;99.90;;;;;;5061254;28;20490;-71
2022/04/28 01:09:36;;;;;;;4.80;2.15;;;4.80;99.90;;;;;;5061531;28;20048;-71
2022/04/28 01:12:15;;;;;;;3.40;1.60;;;4.70;99.90;;;;;;5045130;28;20094;-71
2022/04/28 01:14:45;;;;;;;5.68;1.60;;;4.70;99.90;;;;;;5058100;28;20173;-70
2022/04/28 01:17:12;;;;;;;3.13;1.80;;;4.80;99.90;;;;;;5061931;28;20037;-70
2022/04/28 01:19:38;;;;;;;2.95;1.35;;;4.80;99.90;;;;;;5061527;28;20040;-70
2022/04/28 01:22:05;;;;;;;3.65;1.70;;;4.80;99.90;;;;;;5044972;28;20092;-71
2022/04/28 01:24:31;;;;;;;3.33;1.65;;;4.80;99.90;;;;;;5045174;28;20044;-70
2022/04/28 01:26:59;;;;;;;5.35;1.75;;;4.80;99.90;;;;;;5059746;28;20533;-70
2022/04/28 01:29:24;;;;;;;3.17;1.70;;;4.90;99.90;;;;;;5059308;28;20044;-71
2022/04/28 01:31:50;;;;;;;3.47;1.42;;;4.80;99.90;;;;;;5042883;28;20449;-71
2022/04/28 01:34:16;;;;;;;5.05;1.80;;;4.90;99.90;;;;;;5044447;28;20051;-71
2022/04/28 01:36:43;;;;;;;5.03;2.13;;;4.80;99.90;;;;;;5045409;28;20041;-71
2022/04/28 01:39:09;;;;;;;3.25;1.58;;;4.80;99.90;;;;;;5061184;28;20513;-71
2022/04/28 01:41:34;;;;;;;3.03;2.00;;;4.80;99.90;;;;;;5062548;28;20039;-71
2022/04/28 01:44:00;;;;;;;3.53;1.48;;;4.80;99.90;;;;;;5058314;28;20852;-71
2022/04/28 01:46:26;;;;;;;3.17;1.40;;;4.90;99.90;;;;;;5061186;28;20040;-71
2022/04/28 01:48:51;;;;;;;2.70;1.38;;;4.90;99.90;;;;;;5043979;28;20144;-71
2022/04/28 01:56:45;;;;;;;4.40;1.55;;;5.00;99.90;;;;;;5061550;28;20146;-71
2022/04/28 01:59:11;;;;;;;3.38;1.52;;;5.00;99.90;;;;;;5054944;28;20044;-70
2022/04/28 02:01:36;;;;;;;4.10;2.08;;;5.10;99.90;;;;;;5060681;28;20040;-71
2022/04/28 02:04:02;;;;;;;6.05;1.88;;;5.10;99.90;;;;;;5064283;28;20793;-71
2022/04/28 02:06:28;;;;;;;4.22;2.10;;;5.20;99.90;;;;;;5066062;28;20089;-71
2022/04/28 02:08:53;;;;;;;3.40;1.48;;;5.30;99.90;;;;;;5064481;28;20127;-71
2022/04/28 02:11:19;;;;;;;3.72;1.70;;;5.30;99.90;;;;;;5046492;28;20105;-71
2022/04/28 02:13:44;;;;;;;3.25;1.95;;;5.40;99.90;;;;;;5063899;28;20078;-71
2022/04/28 02:16:10;;;;;;;5.70;1.42;;;5.40;99.90;;;;;;5063791;28;20777;-71
2022/04/28 02:18:36;;;;;;;4.50;2.35;;;5.40;99.90;;;;;;5064645;28;20453;-71
2022/04/28 02:21:02;;;;;;;4.60;1.88;;;5.50;99.90;;;;;;5065209;28;20433;-71
2022/04/28 02:23:27;;;;;;;7.10;2.20;;;5.50;99.90;;;;;;5064728;28;20558;-71
2022/04/28 02:25:53;;;;;;;3.40;1.80;;;5.50;99.90;;;;;;5061863;28;20474;-71
2022/04/28 02:28:19;;;;;;;2.55;1.52;;;5.50;99.90;;;;;;5046615;28;20557;-71
2022/04/28 02:30:44;;;;;;;3.10;1.90;;;5.50;99.90;;;;;;5047151;28;20032;-71
2022/04/28 02:33:10;;;;;;;2.10;1.50;;;5.60;99.90;;;;;;5063141;28;20071;-71
2022/04/28 02:35:37;;;;;;;4.03;1.88;;;5.60;99.90;;;;;;5064585;28;21573;-71
2022/04/28 02:38:03;;;;;;;3.30;1.83;;;5.60;99.90;;;;;;5064511;28;20080;-71
2022/04/28 02:40:29;;;;;;;3.45;1.85;;;5.70;99.90;;;;;;5063199;28;20078;-71
2022/04/28 02:42:54;;;;;;;2.33;1.70;;;5.70;99.90;;;;;;5064072;28;20067;-71
2022/04/28 02:45:20;;;;;;;2.88;1.58;;;5.70;99.90;;;;;;5061665;28;20044;-71
2022/04/28 02:47:45;;;;;;;3.35;1.58;;;5.80;99.90;;;;;;5063968;28;20032;-71
2022/04/28 02:50:11;;;;;;;5.47;1.80;;;5.80;99.90;;;;;;5064282;28;20048;-71
2022/04/28 02:52:40;;;;;;;3.20;1.67;;;5.90;99.90;;;;;;5047842;28;20029;-71
2022/04/28 02:55:09;;;;;;;5.88;2.00;;;5.90;99.90;;;;;;5062576;28;20037;-71
2022/04/28 02:57:35;;;;;;;4.05;1.80;;;5.90;99.90;;;;;;5062822;28;20119;-71
2022/04/28 03:00:04;;;;;;;3.20;2.05;;;5.90;99.90;;;;;;5062725;28;20181;-71
2022/04/28 03:02:30;;;;;;;5.65;1.52;;;5.90;99.90;;;;;;5063083;28;20058;-71
2022/04/28 03:04:56;;;;;;;5.80;1.98;;;6.00;99.90;;;;;;5064793;28;20055;-71
2022/04/28 03:12:51;;;;;;;1.73;1.33;;;6.00;99.90;;;;;;5058921;28;20109;-71
2022/04/28 03:15:17;;;;;;;4.25;1.70;;;6.00;99.90;;;;;;5044664;28;20040;-71
2022/04/28 03:17:43;;;;;;;3.13;1.63;;;6.00;99.90;;;;;;5063717;28;20032;-71
2022/04/28 03:20:09;;;;;;;4.60;2.00;;;6.00;99.90;;;;;;5047847;28;20059;-71
2022/04/28 03:22:36;;;;;;;3.10;1.98;;;6.00;99.90;;;;;;5063567;28;20040;-71
2022/04/28 03:25:02;;;;;;;5.93;2.08;;;6.10;99.90;;;;;;5046296;28;20051;-71
2022/04/28 03:27:31;;;;;;;4.72;1.40;;;6.10;99.90;;;;;;5046156;28;20098;-71
2022/04/28 03:29:56;;;;;;;4.68;1.90;;;6.10;99.90;;;;;;5062074;28;20047;-71
2022/04/28 03:32:22;;;;;;;3.20;1.63;;;6.20;99.90;;;;;;5063365;28;20032;-71
2022/04/28 03:34:47;;;;;;;2.80;1.42;;;6.20;99.90;;;;;;5063758;28;20060;-71
2022/04/28 03:37:13;;;;;;;2.28;1.33;;;6.20;99.90;;;;;;5062629;28;20056;-71
2022/04/28 03:39:38;;;;;;;2.67;1.48;;;6.30;99.90;;;;;;5061666;28;20047;-71
2022/04/28 03:42:07;;;;;;;5.57;2.20;;;6.30;99.90;;;;;;5060084;28;20127;-71
2022/04/28 03:44:34;;;;;;;2.63;1.58;;;6.30;99.90;;;;;;5061012;28;20406;-71
2022/04/28 03:47:00;;;;;;;2.50;1.50;;;6.30;99.90;;;;;;5044418;28;20040;-71
2022/04/28 03:49:26;;;;;;;2.92;1.40;;;6.30;99.90;;;;;;5063097;28;20625;-71
2022/04/28 03:51:52;;;;;;;2.88;1.40;;;6.30;99.90;;;;;;5061224;28;20119;-71
2022/04/28 03:54:18;;;;;;;3.22;1.38;;;6.30;99.90;;;;;;5062663;28;20468;-71
2022/04/28 03:56:43;;;;;;;4.70;1.13;;;6.30;99.90;;;;;;5062650;28;20037;-71
2022/04/28 03:59:09;;;;;;;7.13;1.40;;;6.40;99.90;;;;;;5060434;28;20043;-71
2022/04/28 04:01:35;;;;;;;4.40;2.10;;;6.40;99.90;;;;;;5045006;28;20048;-71
2022/04/28 04:04:00;;;;;;;3.95;1.67;;;6.30;99.90;;;;;;5062555;28;20040;-71
2022/04/28 04:06:26;;;;;;;2.28;1.50;;;6.40;99.90;;;;;;5062152;28;20037;-71
2022/04/28 04:08:52;;;;;;;2.90;1.10;;;6.30;99.90;;;;;;5062974;28;20040;-71
2022/04/28 04:11:18;;;;;;;1.88;1.13;;;6.40;99.90;;;;;;5064081;28;20028;-71
2022/04/28 04:13:45;;;;;;;2.38;1.42;;;6.40;99.90;;;;;;5063191;28;20036;-71
2022/04/28 04:16:11;;;;;;;1.70;1.05;;;6.40;99.90;;;;;;5047099;28;20119;-71
2022/04/28 04:18:37;;;;;;;3.55;1.70;;;6.40;99.90;;;;;;5061355;28;20036;-71
2022/04/28 04:21:03;;;;;;;4.13;1.77;;;6.40;99.90;;;;;;5060393;28;20444;-71
2022/04/28 04:23:29;;;;;;;2.60;1.63;;;6.50;99.90;;;;;;5061711;28;20907;-71
2022/04/28 04:25:54;;;;;;;3.45;1.40;;;6.50;99.90;;;;;;5062436;28;20462;-71
2022/04/28 04:28:20;;;;;;;4.25;1.50;;;6.50;99.90;;;;;;5060929;28;20033;-71
2022/04/28 04:33:31;;;;;;;3.78;1.48;;;6.50;99.90;;;;;;5056821;28;20040;-71
2022/04/28 04:35:56;;;;;;;2.08;1.35;;;6.50;99.90;;;;;;5062966;28;20040;-71
2022/04/28 04:38:22;;;;;;;2.67;1.60;;;6.50;99.90;;;;;;5046246;28;20106;-71
2022/04/28 04:40:47;;;;;;;4.10;1.15;;;6.50;99.90;;;;;;5062516;28;20044;-71
2022/04/28 04:43:13;;;;;;;3.95;1.17;;;6.50;99.90;;;;;;5061571;28;20040;-71
2022/04/28 04:45:42;;;;;;;2.72;1.23;;;6.50;99.90;;;;;;5061858;28;20036;-71
2022/04/28 04:48:10;;;;;;;1.58;1.08;;;6.50;99.90;;;;;;5062190;28;20036;-71
2022/04/28 04:50:36;;;;;;;4.60;1.58;;;6.50;99.90;;;;;;5062208;28;20127;-71
2022/04/28 04:53:03;;;;;;;6.53;1.70;;;6.50;99.90;;;;;;5058501;28;20036;-71
2022/04/28 04:55:28;;;;;;;3.03;1.50;;;6.50;99.90;;;;;;5061997;28;20036;-71
2022/04/28 04:57:54;;;;;;;4.35;1.30;;;6.50;99.90;;;;;;5062073;28;20068;-71
2022/04/28 05:00:19;;;;;;;2.88;1.50;;;6.60;99.90;;;;;;5044069;28;20493;-71
2022/04/28 05:02:45;;;;;;;4.22;2.17;;;6.60;99.90;;;;;;5063067;28;20493;-71
2022/04/28 05:05:10;;;;;;;3.85;1.25;;;6.60;99.90;;;;;;5062757;28;20036;-71
2022/04/28 05:07:36;;;;;;;7.88;1.52;;;6.60;99.90;;;;;;5062386;28;20040;-71
2022/04/28 05:10:02;;;;;;;4.10;1.65;;;6.60;99.90;;;;;;5061556;28;20040;-71
2022/04/28 05:12:27;;;;;;;3.22;1.35;;;6.60;99.90;;;;;;5045512;28;20627;-71
2022/04/28 05:14:53;;;;;;;2.85;1.27;;;6.70;99.90;;;;;;5058995;28;20037;-71
2022/04/28 05:17:19;;;;;;;3.38;1.45;;;6.70;99.90;;;;;;5061306;28;20123;-71
2022/04/28 05:19:44;;;;;;;5.78;1.77;;;6.70;99.90;;;;;;5061816;28;20040;-71
2022/04/28 05:22:10;;;;;;;2.83;1.77;;;6.80;99.90;;;;;;5045805;28;20166;-71
2022/04/28 05:24:35;;;;;;;2.45;1.23;;;6.80;99.90;;;;;;5060752;28;20079;-71
2022/04/28 05:27:01;;;;;;;6.82;1.73;;;6.80;99.90;;;;;;5062667;28;20040;-71
2022/04/28 05:29:27;;;;;;;4.13;1.50;;;6.80;99.90;;;;;;5059111;28;20040;-71
2022/04/28 05:31:52;;;;;;;2.42;1.65;;;6.90;99.90;;;;;;5062686;28;20032;-71
2022/04/28 05:34:18;;;;;;;10.70;1.60;;;6.90;99.90;;;;;;5058675;28;20032;-71
2022/04/28 05:36:44;;;;;;;5.53;1.95;;;7.00;99.90;;;;;;5060410;28;20596;-71
2022/04/28 05:39:10;;;;;;;1.58;1.27;;;7.00;99.90;;;;;;5063464;28;20142;-71
2022/04/28 05:41:36;;;;;;;2.00;1.27;;;7.00;99.90;;;;;;5066714;28;20429;-71
2022/04/28 05:46:46;;;;;;;5.35;1.38;;;7.00;99.90;;;;;;5064204;28;20048;-71
2022/04/28 05:49:12;;;;;;;2.10;1.20;;;7.10;99.90;;;;;;5064188;28;20055;-71
2022/04/28 05:51:40;;;;;;;2.13;1.02;;;7.10;99.90;;;;;;5066276;28;20067;-71
2022/04/28 05:54:06;;;;;;;4.88;1.10;;;7.00;99.90;;;;;;5046427;28;20556;-71
2022/04/28 05:56:31;;;;;;;2.50;1.42;;;7.10;99.90;;;;;;5065924;28;20056;-71
2022/04/28 05:58:57;;;;;;;2.75;1.70;;;7.10;99.90;;;;;;5061949;28;20135;-71
2022/04/28 06:01:22;;;;;;;6.45;1.50;;;7.10;99.90;;;;;;5064657;28;20039;-71
2022/04/28 06:03:48;;;;;;;4.13;1.83;;;7.10;99.90;;;;;;5064919;28;20041;-71
2022/04/28 06:06:13;;;;;;;3.70;1.83;;;7.10;99.90;;;;;;5064350;28;20041;-71
2022/04/28 06:08:39;;;;;;;7.13;2.08;;;7.20;99.90;;;;;;5064109;28;20031;-71
2022/04/28 06:11:05;;;;;;;2.25;1.60;;;7.20;99.90;;;;;;5064394;28;20040;-71
2022/04/28 06:13:31;;;;;;;3.72;2.00;;;7.20;99.90;;;;;;5045959;28;20033;-71
2022/04/28 06:15:58;;;;;;;2.53;1.42;;;7.30;99.90;;;;;;5062870;28;20043;-71
2022/04/28 06:18:24;;;;;;;5.47;2.05;;;7.30;99.90;;;;;;5065047;28;20123;-71
2022/04/28 06:20:50;;;;;;;3.10;2.08;;;7.40;99.90;;;;;;5046390;28;20127;-71
2022/04/28 06:23:15;;;;;;;4.80;2.38;;;7.40;99.90;;;;;;5061112;28;20032;-71
2022/04/28 06:25:41;;;;;;;6.90;1.90;;;7.40;99.90;;;;;;5065201;28;20485;-71
2022/04/28 06:28:07;;;;;;;4.45;2.10;;;7.50;99.90;;;;;;5061922;28;20033;-71
2022/04/28 06:30:32;;;;;;;4.15;1.85;;;7.50;99.90;;;;;;5045803;28;20119;-71
2022/04/28 06:32:58;;;;;;;6.97;2.00;;;7.60;99.90;;;;;;5043085;28;20106;-71
2022/04/28 06:35:24;;;;;;;4.07;2.10;;;7.60;99.90;;;;;;5045694;28;20085;-71
2022/04/28 06:37:49;;;;;;;6.72;1.60;;;7.70;99.90;;;;;;5063442;28;20064;-71
2022/04/28 06:40:15;;;;;;;3.33;1.67;;;7.80;99.90;;;;;;5059827;28;20407;-71
2022/04/28 06:42:43;;;;;;;9.70;2.05;;;7.80;99.90;;;;;;5063520;28;20044;-71
2022/04/28 06:45:10;;;;;;;3.65;1.73;;;7.90;99.90;;;;;;5055935;28;20567;-71
2022/04/28 06:47:36;;;;;;;2.83;1.00;;;8.00;99.90;;;;;;5046552;28;20051;-71
2022/04/28 06:50:02;;;;;;;3.30;1.25;;;8.10;99.90;;;;;;5060653;28;20037;-71
2022/04/28 06:52:28;;;;;;;1.42;0.93;;;8.10;99.90;;;;;;5062958;28;20117;-71
2022/04/28 06:54:53;;;;;;;3.92;1.45;;;8.20;99.90;;;;;;5064307;28;20074;-71
2022/04/28 06:57:19;;;;;;;6.00;1.70;;;8.30;99.90;;;;;;5059696;28;20043;-71
2022/04/28 06:59:44;;;;;;;1.83;1.23;;;8.40;99.90;;;;;;5062017;28;20063;-71
2022/04/28 07:02:10;;;;;;;4.43;1.30;;;8.40;99.90;;;;;;5063232;28;20369;-71
2022/04/28 07:04:36;;;;;;;2.95;1.40;;;8.50;99.90;;;;;;5065300;28;20268;-71
2022/04/28 07:07:02;;;;;;;2.40;1.42;;;8.60;99.90;;;;;;5046572;28;20029;-71
2022/04/28 07:09:27;;;;;;;5.78;1.20;;;8.60;99.90;;;;;;5063458;28;20037;-71
2022/04/28 07:11:53;;;;;;;3.20;1.27;;;8.70;99.90;;;;;;5062735;28;20036;-71
2022/04/28 07:14:19;;;;;;;3.75;1.25;;;8.70;99.90;;;;;;5062541;28;20078;-71
2022/04/28 07:16:44;;;;;;;2.10;1.10;;;8.80;99.90;;;;;;5073033;28;20037;-71
2022/04/28 07:19:10;;;;;;;1.08;0.77;;;8.90;99.90;;;;;;5061494;28;20044;-71
2022/04/28 07:21:35;;;;;;;1.50;1.00;;;8.90;99.90;;;;;;5063906;28;20382;-71
2022/04/28 07:24:01;;;;;;;1.50;0.80;;;9.00;99.90;;;;;;5057181;28;20124;-71
2022/04/28 07:26:28;;;;;;;2.20;1.05;;;9.00;99.90;;;;;;5058716;28;20060;-71
2022/04/28 07:28:54;;;;;;;1.90;0.90;;;9.00;99.90;;;;;;5059520;28;20048;-72
2022/04/28 07:31:20;;;;;;;2.30;1.25;;;9.00;99.90;;;;;;5060919;28;20032;-71
2022/04/28 07:33:45;;;;;;;1.45;0.90;;;9.10;99.90;;;;;;5058652;28;20108;-72
2022/04/28 07:36:12;;;;;;;4.00;1.30;;;9.20;99.90;;;;;;5062177;28;20054;-74
2022/04/28 07:38:38;;;;;;;1.45;0.73;;;9.30;99.90;;;;;;5061552;28;20063;-72
2022/04/28 07:41:04;;;;;;;1.67;0.75;;;9.30;99.90;;;;;;5061314;28;20041;-71
2022/04/28 07:43:30;;;;;;;2.92;0.55;;;9.30;99.90;;;;;;5065720;28;20127;-71
2022/04/28 07:45:55;;;;;;;3.22;1.23;;;9.30;99.90;;;;;;5067656;28;20398;-71
2022/04/28 07:48:21;;;;;;;1.50;1.00;;;9.30;99.90;;;;;;5068256;28;20482;-71
2022/04/28 07:50:47;;;;;;;3.33;0.90;;;9.40;99.90;;;;;;5067032;28;20123;-71
2022/04/28 07:53:13;;;;;;;3.50;0.77;;;9.40;99.90;;;;;;5067260;28;20036;-71
2022/04/28 07:55:39;;;;;;;1.27;0.70;;;9.40;99.90;;;;;;5066285;28;20086;-71
2022/04/28 07:58:04;;;;;;;0.70;0.50;;;9.40;99.90;;;;;;5066895;28;20087;-71
2022/04/28 08:00:30;;;;;;;1.48;0.73;;;9.40;99.90;;;;;;5065592;28;20036;-71
2022/04/28 08:02:56;;;;;;;6.07;0.80;;;9.40;99.90;;;;;;5066082;28;20033;-71
2022/04/28 08:05:21;;;;;;;1.05;0.47;;;9.40;99.90;;;;;;5051148;28;20047;-71
2022/04/28 08:07:47;;;;;;;4.65;1.05;;;9.40;99.90;;;;;;5067611;28;20032;-71
2022/04/28 08:10:12;;;;;;;1.20;0.50;;;9.40;99.90;;;;;;5065655;28;20509;-71
2022/04/28 08:12:38;;;;;;;1.42;0.80;;;9.40;99.90;;;;;;5066067;28;20045;-71
2022/04/28 08:15:04;;;;;;;0.77;0.50;;;9.40;99.90;;;;;;5066265;28;20037;-71
2022/04/28 08:17:30;;;;;;;1.02;0.50;;;9.40;99.90;;;;;;5067728;28;20090;-71
2022/04/28 08:19:56;;;;;;;1.02;0.50;;;9.50;99.90;;;;;;5067346;28;20048;-71
2022/04/28 08:22:21;;;;;;;1.45;0.57;;;9.50;99.90;;;;;;5067708;28;20102;-71
2022/04/28 08:24:47;;;;;;;0.85;0.52;;;9.60;99.90;;;;;;5066133;28;20283;-71
2022/04/28 08:27:12;;;;;;;3.35;0.63;;;9.60;99.90;;;;;;5064844;28;20041;-71
2022/04/28 08:29:38;;;;;;;4.88;0.75;;;9.60;99.90;;;;;;5065101;28;20029;-71
2022/04/28 08:32:04;;;;;;;1.65;0.60;;;9.70;99.90;;;;;;5065332;28;20086;-71
2022/04/28 08:34:30;;;;;;;5.03;0.57;;;9.80;99.90;;;;;;5066762;28;20040;-71
2022/04/28 08:36:55;;;;;;;3.90;0.65;;;9.90;99.90;;;;;;5067445;28;20071;-71
2022/04/28 08:39:21;;;;;;;2.58;0.65;;;10.00;99.90;;;;;;5067243;28;20052;-71
2022/04/28 08:41:47;;;;;;;2.03;0.75;;;10.10;99.90;;;;;;5067375;28;20044;-71
2022/04/28 08:44:24;;;;;;;1.55;0.60;;;10.10;99.90;;;;;;5066303;28;20073;-71
2022/04/28 08:46:52;;;;;;;1.10;0.50;;;10.10;99.90;;;;;;5067054;28;20410;-71
2022/04/28 08:49:29;;;;;;;1.00;0.55;;;10.20;99.90;;;;;;5065065;28;20246;-71
2022/04/28 08:51:58;;;;;;;4.05;0.60;;;10.20;99.90;;;;;;5047616;28;20828;-71
2022/04/28 08:54:26;;;;;;;1.52;0.75;;;10.30;99.90;;;;;;5057864;28;20120;-71
2022/04/28 08:56:54;;;;;;;1.20;0.80;;;10.30;99.90;;;;;;5058985;28;20033;-70
2022/04/28 08:59:25;;;;;;;1.13;0.60;;;10.30;99.90;;;;;;5059615;28;20460;-71
2022/04/28 09:01:51;;;;;;;1.35;0.50;;;10.30;99.50;;;;;;5044598;28;20036;-71
2022/04/28 09:04:18;;;;;;;0.70;0.40;;;10.40;99.80;;;;;;5057472;28;20122;-72
2022/04/28 09:06:44;;;;;;;2.55;0.70;;;10.40;99.10;;;;;;5056427;28;20063;-71
2022/04/28 09:09:12;;;;;;;3.78;0.68;;;10.40;99.60;;;;;;5036713;28;20047;-71
2022/04/28 09:11:42;;;;;;;3.10;0.90;;;10.50;99.60;;;;;;5059948;28;20127;-71
2022/04/28 09:14:23;;;;;;;1.10;0.65;;;10.50;98.90;;;;;;5062872;28;20086;-71
2022/04/28 09:16:59;;;;;;;1.20;0.50;;;10.60;98.20;;;;;;5063125;28;20495;-71
2022/04/28 09:19:25;;;;;;;1.67;0.73;;;10.60;97.60;;;;;;5063698;28;20119;-71
2022/04/28 09:21:56;;;;;;;1.33;0.77;;;10.60;98.40;;;;;;5065277;28;20033;-71
2022/04/28 09:24:23;;;;;;;1.35;0.70;;;10.60;97.30;;;;;;5064072;28;20068;-71
2022/04/28 09:26:53;;;;;;;1.35;0.60;;;10.60;97.20;;;;;;5064314;28;20074;-71
2022/04/28 09:29:19;;;;;;;1.00;0.60;;;10.60;98.20;;;;;;5061997;28;20498;-71
2022/04/28 09:31:46;;;;;;;2.35;0.88;;;10.60;98.20;;;;;;5062939;28;20102;-71
2022/04/28 09:34:14;;;;;;;1.75;0.60;;;10.60;97.50;;;;;;5064207;28;20388;-71
2022/04/28 09:36:41;;;;;;;0.68;0.63;;;10.70;97.50;;;;;;5063709;28;20036;-71
2022/04/28 09:39:09;;;;;;;1.05;0.70;;;10.70;97.20;;;;;;5059557;28;20443;-71
2022/04/28 09:44:20;;;;;;;2.10;1.00;;;10.80;97.30;;;;;;5062040;28;20497;-71
2022/04/28 09:46:47;;;;;;;1.48;0.50;;;10.80;97.10;;;;;;5064641;28;20094;-71
2022/04/28 09:49:15;;;;;;;0.95;0.70;;;10.80;97.20;;;;;;5046763;28;20052;-71
2022/04/28 09:51:41;;;;;;;1.40;0.45;;;10.90;97.30;;;;;;5046372;28;20635;-71
2022/04/28 09:54:10;;;;;;;1.15;0.70;;;11.00;96.20;;;;;;5062544;28;20497;-72
2022/04/28 09:56:37;;;;;;;1.23;0.75;;;11.00;96.20;;;;;;5045635;28;20036;-71
2022/04/28 09:59:05;;;;;;;3.22;1.30;;;11.00;96.60;;;;;;5061559;28;20078;-70
2022/04/28 10:01:32;;;;;;;2.20;1.17;;;11.10;96.60;;;;;;5066009;28;20486;-71
2022/04/28 10:03:58;;;;;;;1.80;1.00;;;11.10;96.90;;;;;;5063002;28;20146;-71
2022/04/28 10:06:34;;;;;;;1.60;0.90;;;11.20;96.50;;;;;;5062451;28;20037;-70
2022/04/28 10:09:04;;;;;;;1.88;0.80;;;11.20;95.90;;;;;;5045737;28;20048;-71
2022/04/28 10:11:30;;;;;;;2.42;1.23;;;11.30;95.70;;;;;;5046660;28;20139;-71
2022/04/28 10:13:57;;;;;;;3.35;1.15;;;11.30;95.40;;;;;;5056464;28;20048;-71
2022/04/28 10:16:24;;;;;;;1.20;0.80;;;11.30;94.90;;;;;;5045602;28;20624;-71
2022/04/28 10:19:15;;;;;;;1.30;0.82;;;11.30;95.80;;;;;;5062490;28;20070;-71
2022/04/28 10:21:59;;;;;;;3.72;1.08;;;11.30;94.00;;;;;;5062028;28;20043;-71
2022/04/28 10:33:00;;;;;;;10.70;1.23;;;11.40;94.60;;;;;;5059726;28;20045;-71
2022/04/28 10:35:38;;;;;;;2.08;1.10;;;11.40;94.30;;;;;;5043451;28;20343;-71
2022/04/28 10:38:12;;;;;;;2.88;1.48;;;11.40;94.80;;;;;;5060069;28;20053;-71
2022/04/28 10:40:59;;;;;;;1.80;1.17;;;11.40;94.60;;;;;;5042632;28;20052;-71
2022/04/28 10:43:32;;;;;;;6.70;1.40;;;11.30;93.90;;;;;;5059890;28;20074;-71
2022/04/28 10:46:22;;;;;;;6.13;1.58;;;11.30;95.00;;;;;;5045858;28;20097;-71
2022/04/28 10:48:52;;;;;;;3.53;1.42;;;11.30;94.80;;;;;;5061530;28;20535;-71
2022/04/28 10:51:19;;;;;;;1.67;1.00;;;11.40;95.30;;;;;;5060968;28;20035;-71
2022/04/28 10:54:07;;;;;;;3.17;1.80;;;11.40;95.10;;;;;;5062004;28;20052;-71
2022/04/28 10:56:42;;;;;;;3.75;1.85;;;11.40;94.50;;;;;;5057169;28;20033;-70
2022/04/28 10:59:34;;;;;;;1.90;1.23;;;11.50;94.80;;;;;;5041934;28;20032;-71
2022/04/28 11:02:15;;;;;;;1.67;1.00;;;11.50;93.40;;;;;;5043173;28;20143;-70
2022/04/28 11:05:03;;;;;;;10.05;2.13;;;11.60;94.30;;;;;;5048165;28;20040;-71
2022/04/28 11:07:30;;;;;;;2.55;1.45;;;11.60;93.20;;;;;;5047289;28;20058;-71
2022/04/28 11:10:07;;;;;;;2.35;1.17;;;11.60;94.50;;;;;;5065757;28;20063;-71
2022/04/28 11:12:38;;;;;;;2.55;1.20;;;11.70;94.20;;;;;;5047414;28;20043;-71
2022/04/28 11:15:05;;;;;;;4.80;1.20;;;11.70;93.60;;;;;;5064047;28;20394;-71
2022/04/28 11:17:33;;;;;;;4.38;1.50;;;11.80;94.20;;;;;;5058906;28;20039;-71
2022/04/28 11:20:16;;;;;;;5.93;1.30;;;11.80;94.30;;;;;;5061965;28;20132;-71
2022/04/28 11:22:43;;;;;;;4.40;1.75;;;11.80;92.90;;;;;;5061427;28;20047;-71
2022/04/28 11:25:20;;;;;;;3.80;1.42;;;11.80;93.70;;;;;;5063400;28;20189;-71
2022/04/28 11:27:48;;;;;;;2.05;1.10;;;11.80;93.20;;;;;;5062582;28;20090;-71
2022/04/28 11:30:19;;;;;;;3.33;1.75;;;11.90;94.30;;;;;;5057614;28;20123;-71
2022/04/28 11:32:51;;;;;;;2.28;1.23;;;11.90;93.50;;;;;;5057214;28;20033;-71
2022/04/28 11:35:18;;;;;;;4.63;1.20;;;11.90;93.60;;;;;;5073361;28;20490;-72
2022/04/28 11:37:43;;;;;;;2.03;1.05;;;11.90;93.40;;;;;;5060074;28;20048;-71
2022/04/28 11:40:13;;;;;;;2.15;1.13;;;11.90;93.60;;;;;;5058260;28;20505;-70
2022/04/28 11:42:41;;;;;;;4.45;1.00;;;11.90;92.50;;;;;;5059010;28;20044;-71
2022/04/28 11:45:07;;;;;;;1.80;1.10;;;11.90;93.40;;;;;;5056329;28;20044;-71
2022/04/28 11:47:45;;;;;;;4.90;1.35;;;11.90;93.60;;;;;;5057395;28;20320;-71
2022/04/28 11:50:19;;;;;;;2.38;1.00;;;12.00;93.40;;;;;;5041998;28;20121;-71
2022/04/28 11:52:56;;;;;;;4.85;1.10;;;12.00;92.30;;;;;;5060913;28;20241;-71
2022/04/28 11:55:26;;;;;;;2.55;1.45;;;11.90;93.50;;;;;;5057407;28;20494;-71
2022/04/28 11:57:52;;;;;;;2.20;1.05;;;12.00;93.40;;;;;;5059487;28;20035;-71
2022/04/28 12:00:18;;;;;;;1.05;0.80;;;12.00;93.10;;;;;;5055537;28;20048;-71
2022/04/28 12:02:44;;;;;;;5.05;1.27;;;12.00;93.30;;;;;;5060540;28;20052;-71
2022/04/28 12:05:19;;;;;;;1.58;0.82;;;12.00;93.40;;;;;;5042191;28;20040;-71
2022/04/28 12:07:51;;;;;;;3.50;1.20;;;12.10;92.30;;;;;;5058790;28;20578;-71
2022/04/28 12:16:01;;;;;;;2.80;0.93;;;12.20;93.00;;;;;;5061736;28;20041;-71
2022/04/28 12:21:15;;;;;;;1.80;0.95;;;12.20;92.50;;;;;;5059865;28;20048;-71
2022/04/28 12:23:43;;;;;;;4.35;1.17;;;12.20;92.50;;;;;;5060622;28;20040;-71
2022/04/28 12:26:10;;;;;;;4.15;1.00;;;12.20;92.20;;;;;;5060746;28;20506;-71
2022/04/28 12:28:43;;;;;;;2.60;0.90;;;12.20;92.80;;;;;;5041002;28;20044;-71
2022/04/28 12:31:13;;;;;;;6.03;1.10;;;12.20;91.30;;;;;;5062141;28;20095;-71
2022/04/28 12:33:40;;;;;;;3.35;1.13;;;12.20;92.40;;;;;;5059526;28;20040;-72
2022/04/28 12:36:16;;;;;;;1.58;0.90;;;12.20;92.50;;;;;;5038255;28;20124;-71
2022/04/28 12:38:46;;;;;;;1.52;1.00;;;12.10;91.70;;;;;;5060461;28;20056;-71
2022/04/28 12:41:27;;;;;;;4.47;1.23;;;12.10;92.00;;;;;;5038798;28;20047;-71
2022/04/28 12:43:58;;;;;;;2.78;1.00;;;12.10;90.40;;;;;;5042606;28;20123;-71
2022/04/28 12:46:35;;;;;;;3.70;1.95;;;12.20;92.10;;;;;;5058207;28;20503;-71
2022/04/28 12:49:03;;;;;;;2.33;1.10;;;12.20;91.90;;;;;;5038495;28;20078;-71
2022/04/28 12:51:46;;;;;;;2.10;1.23;;;12.30;92.40;;;;;;5055805;28;20090;-71
2022/04/28 12:54:12;;;;;;;5.40;0.90;;;12.40;90.60;;;;;;5058657;28;20044;-71
2022/04/28 12:56:39;;;;;;;1.48;0.80;;;12.40;92.00;;;;;;5062533;28;20028;-71
2022/04/28 12:59:06;;;;;;;2.10;0.93;;;12.40;91.60;;;;;;5056093;28;20558;-70
2022/04/28 13:01:33;;;;;;;1.90;1.10;;;12.40;91.50;;;;;;5058385;28;20032;-71
2022/04/28 13:04:05;;;;;;;2.35;0.98;;;12.30;91.40;;;;;;5060169;28;20119;-71
2022/04/28 13:06:33;;;;;;;1.77;1.23;;;12.40;91.90;;;;;;5063703;28;20028;-71
2022/04/28 13:09:00;;;;;;;2.15;1.08;;;12.40;91.30;;;;;;5059130;28;20029;-71
2022/04/28 13:11:28;;;;;;;0.90;0.63;;;12.40;91.40;;;;;;5060202;28;20460;-71
2022/04/28 13:13:55;;;;;;;2.95;0.90;;;12.40;91.40;;;;;;5041680;28;20076;-71
2022/04/28 13:16:22;;;;;;;2.65;1.02;;;12.40;90.90;;;;;;5057097;28;20037;-71
2022/04/28 13:18:48;;;;;;;6.10;1.30;;;12.40;91.70;;;;;;5059406;28;20029;-71
2022/04/28 13:21:15;;;;;;;2.20;1.20;;;12.30;91.40;;;;;;5060709;28;20068;-71
2022/04/28 13:23:42;;;;;;;2.95;1.10;;;12.30;91.80;;;;;;5057101;28;20041;-71
2022/04/28 13:26:09;;;;;;;2.22;1.00;;;12.30;90.80;;;;;;5039820;28;20067;-71
2022/04/28 13:28:35;;;;;;;2.45;1.20;;;12.30;90.80;;;;;;5056789;28;20409;-71
2022/04/28 13:31:01;;;;;;;1.95;1.38;;;12.20;91.80;;;;;;5059799;28;20045;-71
2022/04/28 13:33:26;;;;;;;3.15;0.77;;;12.30;91.30;;;;;;5058665;28;20046;-71